sensor_id;sensor_type;location;lat;lon;timestamp;P1;durP1;ratioP1;P2;durP2;ratioP2
22965;SDS011;11649;48.090;9.754;2023-07-28T00:01:03;4.60;;;3.47;;
22965;SDS011;11649;48.090;9.754;2023-07-28T00:03:30;7.07;;;3.45;;
22965;SDS011;11649;48.090;9.754;2023-07-28T00:05:57;4.45;;;3.60;;
22965;SDS011;11649;48.090;9.754;2023-07-28T00:08:23;7.10;;;3.10;;
22965;SDS011;11649;48.090;9.754;2023-07-28T00:10:50;4.07;;;3.67;;
22965;SDS011;11649;48.090;9.754;2023-07-28T00:13:17;5.63;;;3.53;;
22965;SDS011;11649;48.090;9.754;2023-07-28T00:15:44;4.05;;;3.42;;
22965;SDS011;11649;48.090;9.754;2023-07-28T00:18:10;5.88;;;3.30;;
22965;SDS011;11649;48.090;9.754;2023-07-28T00:20:37;4.95;;;3.80;;
22965;SDS011;11649;48.090;9.754;2023-07-28T00:23:04;4.78;;;3.40;;
22965;SDS011;11649;48.090;9.754;2023-07-28T00:25:31;4.82;;;3.75;;
22965;SDS011;11649;48.090;9.754;2023-07-28T00:27:58;5.95;;;4.20;;
22965;SDS011;11649;48.090;9.754;2023-07-28T00:30:24;5.80;;;3.80;;
22965;SDS011;11649;48.090;9.754;2023-07-28T00:32:53;4.82;;;3.70;;
22965;SDS011;11649;48.090;9.754;2023-07-28T00:35:19;4.72;;;3.60;;
22965;SDS011;11649;48.090;9.754;2023-07-28T00:37:46;8.05;;;4.22;;
22965;SDS011;11649;48.090;9.754;2023-07-28T00:40:13;6.07;;;4.50;;
22965;SDS011;11649;48.090;9.754;2023-07-28T00:42:40;6.18;;;4.10;;
22965;SDS011;11649;48.090;9.754;2023-07-28T00:45:07;7.63;;;4.10;;
22965;SDS011;11649;48.090;9.754;2023-07-28T00:47:34;4.70;;;4.03;;
22965;SDS011;11649;48.090;9.754;2023-07-28T00:50:02;5.88;;;3.80;;
22965;SDS011;11649;48.090;9.754;2023-07-28T00:52:29;5.13;;;3.80;;
22965;SDS011;11649;48.090;9.754;2023-07-28T00:54:56;6.15;;;4.38;;
22965;SDS011;11649;48.090;9.754;2023-07-28T00:57:23;5.30;;;3.70;;
22965;SDS011;11649;48.090;9.754;2023-07-28T00:59:50;8.95;;;3.97;;
22965;SDS011;11649;48.090;9.754;2023-07-28T01:02:17;6.65;;;4.35;;
22965;SDS011;11649;48.090;9.754;2023-07-28T01:04:45;5.05;;;3.70;;
22965;SDS011;11649;48.090;9.754;2023-07-28T01:09:45;5.72;;;4.35;;
22965;SDS011;11649;48.090;9.754;2023-07-28T01:12:17;5.25;;;3.60;;
22965;SDS011;11649;48.090;9.754;2023-07-28T01:14:44;5.05;;;4.45;;
22965;SDS011;11649;48.090;9.754;2023-07-28T01:17:11;4.97;;;4.20;;
22965;SDS011;11649;48.090;9.754;2023-07-28T01:19:37;5.05;;;4.28;;
22965;SDS011;11649;48.090;9.754;2023-07-28T01:24:51;6.15;;;3.75;;
22965;SDS011;11649;48.090;9.754;2023-07-28T01:27:29;5.40;;;3.92;;
22965;SDS011;11649;48.090;9.754;2023-07-28T01:29:57;6.93;;;3.88;;
22965;SDS011;11649;48.090;9.754;2023-07-28T01:32:25;5.80;;;4.20;;
22965;SDS011;11649;48.090;9.754;2023-07-28T01:34:51;7.80;;;4.55;;
22965;SDS011;11649;48.090;9.754;2023-07-28T01:37:18;5.38;;;3.78;;
22965;SDS011;11649;48.090;9.754;2023-07-28T01:39:45;5.90;;;3.85;;
22965;SDS011;11649;48.090;9.754;2023-07-28T01:42:12;5.95;;;3.95;;
22965;SDS011;11649;48.090;9.754;2023-07-28T01:44:38;6.72;;;3.85;;
22965;SDS011;11649;48.090;9.754;2023-07-28T01:47:05;8.45;;;3.72;;
22965;SDS011;11649;48.090;9.754;2023-07-28T01:49:32;5.03;;;3.65;;
22965;SDS011;11649;48.090;9.754;2023-07-28T01:51:58;5.28;;;4.15;;
22965;SDS011;11649;48.090;9.754;2023-07-28T01:54:25;10.13;;;3.70;;
22965;SDS011;11649;48.090;9.754;2023-07-28T01:56:52;5.97;;;3.90;;
22965;SDS011;11649;48.090;9.754;2023-07-28T01:59:19;4.85;;;3.67;;
22965;SDS011;11649;48.090;9.754;2023-07-28T02:01:46;6.43;;;3.80;;
22965;SDS011;11649;48.090;9.754;2023-07-28T02:04:13;6.45;;;4.20;;
22965;SDS011;11649;48.090;9.754;2023-07-28T02:06:42;7.47;;;4.03;;
22965;SDS011;11649;48.090;9.754;2023-07-28T02:09:09;4.07;;;3.67;;
22965;SDS011;11649;48.090;9.754;2023-07-28T02:11:35;7.43;;;4.40;;
22965;SDS011;11649;48.090;9.754;2023-07-28T02:14:02;5.30;;;3.72;;
22965;SDS011;11649;48.090;9.754;2023-07-28T02:16:29;6.90;;;3.63;;
22965;SDS011;11649;48.090;9.754;2023-07-28T02:18:58;6.93;;;4.55;;
22965;SDS011;11649;48.090;9.754;2023-07-28T02:21:25;6.18;;;3.70;;
22965;SDS011;11649;48.090;9.754;2023-07-28T02:23:53;4.22;;;3.65;;
22965;SDS011;11649;48.090;9.754;2023-07-28T02:26:20;5.13;;;4.03;;
22965;SDS011;11649;48.090;9.754;2023-07-28T02:28:47;4.80;;;3.80;;
22965;SDS011;11649;48.090;9.754;2023-07-28T02:31:14;5.18;;;3.50;;
22965;SDS011;11649;48.090;9.754;2023-07-28T02:33:40;4.63;;;3.40;;
22965;SDS011;11649;48.090;9.754;2023-07-28T02:36:07;4.80;;;3.90;;
22965;SDS011;11649;48.090;9.754;2023-07-28T02:38:34;5.50;;;4.00;;
22965;SDS011;11649;48.090;9.754;2023-07-28T02:41:01;5.38;;;4.53;;
22965;SDS011;11649;48.090;9.754;2023-07-28T02:43:30;9.27;;;4.63;;
22965;SDS011;11649;48.090;9.754;2023-07-28T02:45:57;6.07;;;4.97;;
22965;SDS011;11649;48.090;9.754;2023-07-28T02:48:24;7.65;;;5.00;;
22965;SDS011;11649;48.090;9.754;2023-07-28T02:50:51;5.60;;;4.43;;
22965;SDS011;11649;48.090;9.754;2023-07-28T02:53:18;6.25;;;4.93;;
22965;SDS011;11649;48.090;9.754;2023-07-28T02:55:45;7.65;;;4.78;;
22965;SDS011;11649;48.090;9.754;2023-07-28T02:58:13;6.97;;;5.00;;
22965;SDS011;11649;48.090;9.754;2023-07-28T03:00:41;6.05;;;4.90;;
22965;SDS011;11649;48.090;9.754;2023-07-28T03:03:09;5.82;;;5.03;;
22965;SDS011;11649;48.090;9.754;2023-07-28T03:05:37;7.22;;;4.80;;
22965;SDS011;11649;48.090;9.754;2023-07-28T03:08:05;7.18;;;5.10;;
22965;SDS011;11649;48.090;9.754;2023-07-28T03:10:32;7.25;;;5.00;;
22965;SDS011;11649;48.090;9.754;2023-07-28T03:12:59;6.32;;;4.72;;
22965;SDS011;11649;48.090;9.754;2023-07-28T03:15:26;6.15;;;5.07;;
22965;SDS011;11649;48.090;9.754;2023-07-28T03:17:52;7.85;;;4.90;;
22965;SDS011;11649;48.090;9.754;2023-07-28T03:20:21;6.53;;;4.88;;
22965;SDS011;11649;48.090;9.754;2023-07-28T03:22:48;8.00;;;4.70;;
22965;SDS011;11649;48.090;9.754;2023-07-28T03:25:14;6.25;;;4.75;;
22965;SDS011;11649;48.090;9.754;2023-07-28T03:27:41;6.35;;;4.60;;
22965;SDS011;11649;48.090;9.754;2023-07-28T03:30:08;7.70;;;4.53;;
22965;SDS011;11649;48.090;9.754;2023-07-28T03:32:37;5.80;;;4.47;;
22965;SDS011;11649;48.090;9.754;2023-07-28T03:35:04;6.82;;;4.57;;
22965;SDS011;11649;48.090;9.754;2023-07-28T03:37:32;8.50;;;5.05;;
22965;SDS011;11649;48.090;9.754;2023-07-28T03:39:59;6.72;;;4.65;;
22965;SDS011;11649;48.090;9.754;2023-07-28T03:42:26;5.28;;;4.47;;
22965;SDS011;11649;48.090;9.754;2023-07-28T03:44:53;5.57;;;4.97;;
22965;SDS011;11649;48.090;9.754;2023-07-28T03:47:19;7.95;;;4.72;;
22965;SDS011;11649;48.090;9.754;2023-07-28T03:49:46;8.57;;;4.88;;
22965;SDS011;11649;48.090;9.754;2023-07-28T03:52:13;5.53;;;4.80;;
22965;SDS011;11649;48.090;9.754;2023-07-28T03:54:40;9.25;;;4.80;;
22965;SDS011;11649;48.090;9.754;2023-07-28T03:57:08;6.55;;;4.90;;
22965;SDS011;11649;48.090;9.754;2023-07-28T03:59:35;6.32;;;5.07;;
22965;SDS011;11649;48.090;9.754;2023-07-28T04:02:02;6.35;;;5.20;;
22965;SDS011;11649;48.090;9.754;2023-07-28T04:04:29;5.85;;;4.85;;
22965;SDS011;11649;48.090;9.754;2023-07-28T04:06:56;9.02;;;5.22;;
22965;SDS011;11649;48.090;9.754;2023-07-28T04:09:23;6.53;;;5.30;;
22965;SDS011;11649;48.090;9.754;2023-07-28T04:11:50;5.30;;;4.80;;
22965;SDS011;11649;48.090;9.754;2023-07-28T04:14:17;7.57;;;4.95;;
22965;SDS011;11649;48.090;9.754;2023-07-28T04:16:43;8.85;;;5.13;;
22965;SDS011;11649;48.090;9.754;2023-07-28T04:19:10;7.88;;;5.07;;
22965;SDS011;11649;48.090;9.754;2023-07-28T04:21:37;6.47;;;4.78;;
22965;SDS011;11649;48.090;9.754;2023-07-28T04:24:07;9.75;;;4.45;;
22965;SDS011;11649;48.090;9.754;2023-07-28T04:26:35;6.25;;;4.97;;
22965;SDS011;11649;48.090;9.754;2023-07-28T04:29:02;6.85;;;4.82;;
22965;SDS011;11649;48.090;9.754;2023-07-28T04:31:29;7.40;;;4.88;;
22965;SDS011;11649;48.090;9.754;2023-07-28T04:33:56;5.85;;;4.82;;
22965;SDS011;11649;48.090;9.754;2023-07-28T04:36:23;8.52;;;5.07;;
22965;SDS011;11649;48.090;9.754;2023-07-28T04:38:49;9.45;;;5.00;;
22965;SDS011;11649;48.090;9.754;2023-07-28T04:41:16;5.93;;;4.80;;
22965;SDS011;11649;48.090;9.754;2023-07-28T04:43:43;8.43;;;4.90;;
22965;SDS011;11649;48.090;9.754;2023-07-28T04:46:10;7.00;;;5.00;;
22965;SDS011;11649;48.090;9.754;2023-07-28T04:48:37;7.57;;;4.65;;
22965;SDS011;11649;48.090;9.754;2023-07-28T04:51:04;5.90;;;4.68;;
22965;SDS011;11649;48.090;9.754;2023-07-28T04:53:30;6.05;;;4.50;;
22965;SDS011;11649;48.090;9.754;2023-07-28T04:55:57;6.47;;;4.53;;
22965;SDS011;11649;48.090;9.754;2023-07-28T04:58:24;6.10;;;4.85;;
22965;SDS011;11649;48.090;9.754;2023-07-28T05:00:50;5.50;;;4.88;;
22965;SDS011;11649;48.090;9.754;2023-07-28T05:03:17;5.88;;;4.90;;
22965;SDS011;11649;48.090;9.754;2023-07-28T05:05:45;10.00;;;4.93;;
22965;SDS011;11649;48.090;9.754;2023-07-28T05:08:12;6.38;;;4.60;;
22965;SDS011;11649;48.090;9.754;2023-07-28T05:10:40;7.50;;;4.60;;
22965;SDS011;11649;48.090;9.754;2023-07-28T05:13:09;6.35;;;4.50;;
22965;SDS011;11649;48.090;9.754;2023-07-28T05:15:36;5.57;;;4.72;;
22965;SDS011;11649;48.090;9.754;2023-07-28T05:18:02;7.55;;;4.50;;
22965;SDS011;11649;48.090;9.754;2023-07-28T05:20:29;6.70;;;4.53;;
22965;SDS011;11649;48.090;9.754;2023-07-28T05:22:56;6.78;;;3.80;;
22965;SDS011;11649;48.090;9.754;2023-07-28T05:25:23;6.97;;;4.30;;
22965;SDS011;11649;48.090;9.754;2023-07-28T05:27:50;4.80;;;3.65;;
22965;SDS011;11649;48.090;9.754;2023-07-28T05:30:17;5.20;;;3.90;;
22965;SDS011;11649;48.090;9.754;2023-07-28T05:32:43;4.53;;;3.85;;
22965;SDS011;11649;48.090;9.754;2023-07-28T05:35:12;4.28;;;3.85;;
22965;SDS011;11649;48.090;9.754;2023-07-28T05:37:39;5.38;;;4.00;;
22965;SDS011;11649;48.090;9.754;2023-07-28T05:40:06;5.03;;;3.90;;
22965;SDS011;11649;48.090;9.754;2023-07-28T05:42:33;6.13;;;3.78;;
22965;SDS011;11649;48.090;9.754;2023-07-28T05:45:00;5.80;;;3.83;;
22965;SDS011;11649;48.090;9.754;2023-07-28T05:47:27;5.47;;;3.78;;
22965;SDS011;11649;48.090;9.754;2023-07-28T05:49:54;7.55;;;4.10;;
22965;SDS011;11649;48.090;9.754;2023-07-28T05:52:21;8.30;;;3.90;;
22965;SDS011;11649;48.090;9.754;2023-07-28T05:54:50;12.88;;;4.20;;
22965;SDS011;11649;48.090;9.754;2023-07-28T05:57:17;11.15;;;4.10;;
22965;SDS011;11649;48.090;9.754;2023-07-28T05:59:46;10.60;;;4.55;;
22965;SDS011;11649;48.090;9.754;2023-07-28T06:02:13;13.35;;;4.13;;
22965;SDS011;11649;48.090;9.754;2023-07-28T06:04:39;8.02;;;4.30;;
22965;SDS011;11649;48.090;9.754;2023-07-28T06:07:06;14.48;;;4.25;;
22965;SDS011;11649;48.090;9.754;2023-07-28T06:09:33;15.65;;;4.43;;
22965;SDS011;11649;48.090;9.754;2023-07-28T06:12:00;17.45;;;4.18;;
22965;SDS011;11649;48.090;9.754;2023-07-28T06:14:27;21.13;;;4.70;;
22965;SDS011;11649;48.090;9.754;2023-07-28T06:16:53;10.20;;;4.38;;
22965;SDS011;11649;48.090;9.754;2023-07-28T06:19:20;13.48;;;4.10;;
22965;SDS011;11649;48.090;9.754;2023-07-28T06:21:50;7.95;;;3.95;;
22965;SDS011;11649;48.090;9.754;2023-07-28T06:24:17;11.80;;;4.53;;
22965;SDS011;11649;48.090;9.754;2023-07-28T06:26:44;13.15;;;4.03;;
22965;SDS011;11649;48.090;9.754;2023-07-28T06:29:11;9.50;;;3.85;;
22965;SDS011;11649;48.090;9.754;2023-07-28T06:31:38;6.85;;;3.90;;
22965;SDS011;11649;48.090;9.754;2023-07-28T06:34:05;8.77;;;3.50;;
22965;SDS011;11649;48.090;9.754;2023-07-28T06:36:32;7.35;;;3.75;;
22965;SDS011;11649;48.090;9.754;2023-07-28T06:38:59;7.18;;;3.78;;
22965;SDS011;11649;48.090;9.754;2023-07-28T06:41:26;6.57;;;3.80;;
22965;SDS011;11649;48.090;9.754;2023-07-28T06:43:53;6.15;;;3.75;;
22965;SDS011;11649;48.090;9.754;2023-07-28T06:46:19;5.65;;;3.60;;
22965;SDS011;11649;48.090;9.754;2023-07-28T06:48:46;7.05;;;3.80;;
22965;SDS011;11649;48.090;9.754;2023-07-28T06:51:13;6.68;;;3.70;;
22965;SDS011;11649;48.090;9.754;2023-07-28T06:53:40;4.70;;;3.58;;
22965;SDS011;11649;48.090;9.754;2023-07-28T06:56:07;5.13;;;3.38;;
22965;SDS011;11649;48.090;9.754;2023-07-28T06:58:34;4.68;;;3.40;;
22965;SDS011;11649;48.090;9.754;2023-07-28T07:01:00;6.45;;;3.53;;
22965;SDS011;11649;48.090;9.754;2023-07-28T07:03:27;4.05;;;3.40;;
22965;SDS011;11649;48.090;9.754;2023-07-28T07:05:54;7.20;;;3.60;;
22965;SDS011;11649;48.090;9.754;2023-07-28T07:08:21;4.93;;;3.50;;
22965;SDS011;11649;48.090;9.754;2023-07-28T07:10:51;5.03;;;3.42;;
22965;SDS011;11649;48.090;9.754;2023-07-28T07:13:18;6.40;;;3.30;;
22965;SDS011;11649;48.090;9.754;2023-07-28T07:15:46;6.75;;;3.55;;
22965;SDS011;11649;48.090;9.754;2023-07-28T07:18:12;4.93;;;3.20;;
22965;SDS011;11649;48.090;9.754;2023-07-28T07:20:39;5.05;;;3.47;;
22965;SDS011;11649;48.090;9.754;2023-07-28T07:23:06;3.95;;;3.10;;
22965;SDS011;11649;48.090;9.754;2023-07-28T07:25:33;3.65;;;2.92;;
22965;SDS011;11649;48.090;9.754;2023-07-28T07:28:00;4.13;;;3.40;;
22965;SDS011;11649;48.090;9.754;2023-07-28T07:30:27;3.63;;;2.88;;
22965;SDS011;11649;48.090;9.754;2023-07-28T07:32:54;4.95;;;3.40;;
22965;SDS011;11649;48.090;9.754;2023-07-28T07:35:21;4.45;;;3.58;;
22965;SDS011;11649;48.090;9.754;2023-07-28T07:37:48;3.65;;;3.08;;
22965;SDS011;11649;48.090;9.754;2023-07-28T07:40:14;7.88;;;3.25;;
22965;SDS011;11649;48.090;9.754;2023-07-28T07:42:50;4.10;;;2.80;;
22965;SDS011;11649;48.090;9.754;2023-07-28T07:45:18;5.75;;;3.38;;
22965;SDS011;11649;48.090;9.754;2023-07-28T07:47:45;4.25;;;2.97;;
22965;SDS011;11649;48.090;9.754;2023-07-28T07:50:11;4.10;;;3.20;;
22965;SDS011;11649;48.090;9.754;2023-07-28T07:52:39;3.47;;;3.08;;
22965;SDS011;11649;48.090;9.754;2023-07-28T07:55:08;5.88;;;3.05;;
22965;SDS011;11649;48.090;9.754;2023-07-28T07:57:43;5.72;;;3.40;;
22965;SDS011;11649;48.090;9.754;2023-07-28T08:00:10;4.97;;;3.33;;
22965;SDS011;11649;48.090;9.754;2023-07-28T08:02:37;3.63;;;3.03;;
22965;SDS011;11649;48.090;9.754;2023-07-28T08:05:04;5.43;;;3.33;;
22965;SDS011;11649;48.090;9.754;2023-07-28T08:07:31;4.10;;;2.90;;
22965;SDS011;11649;48.090;9.754;2023-07-28T08:09:58;3.47;;;3.17;;
22965;SDS011;11649;48.090;9.754;2023-07-28T08:12:25;7.45;;;2.92;;
22965;SDS011;11649;48.090;9.754;2023-07-28T08:14:52;5.38;;;3.08;;
22965;SDS011;11649;48.090;9.754;2023-07-28T08:17:22;3.08;;;2.50;;
22965;SDS011;11649;48.090;9.754;2023-07-28T08:19:49;4.30;;;2.85;;
22965;SDS011;11649;48.090;9.754;2023-07-28T08:22:15;4.47;;;2.60;;
22965;SDS011;11649;48.090;9.754;2023-07-28T08:24:42;4.13;;;2.30;;
22965;SDS011;11649;48.090;9.754;2023-07-28T08:27:09;5.20;;;2.53;;
22965;SDS011;11649;48.090;9.754;2023-07-28T08:29:36;4.25;;;2.33;;
22965;SDS011;11649;48.090;9.754;2023-07-28T08:32:02;4.20;;;2.30;;
22965;SDS011;11649;48.090;9.754;2023-07-28T08:34:29;2.33;;;2.00;;
22965;SDS011;11649;48.090;9.754;2023-07-28T08:36:56;4.53;;;2.50;;
22965;SDS011;11649;48.090;9.754;2023-07-28T08:39:23;4.03;;;2.28;;
22965;SDS011;11649;48.090;9.754;2023-07-28T08:41:57;2.95;;;2.38;;
22965;SDS011;11649;48.090;9.754;2023-07-28T08:44:25;3.70;;;2.22;;
22965;SDS011;11649;48.090;9.754;2023-07-28T08:46:52;6.78;;;2.60;;
22965;SDS011;11649;48.090;9.754;2023-07-28T08:49:19;3.72;;;2.47;;
22965;SDS011;11649;48.090;9.754;2023-07-28T08:51:50;3.63;;;2.53;;
22965;SDS011;11649;48.090;9.754;2023-07-28T08:54:18;3.90;;;2.70;;
22965;SDS011;11649;48.090;9.754;2023-07-28T08:56:45;2.47;;;2.28;;
22965;SDS011;11649;48.090;9.754;2023-07-28T08:59:11;3.20;;;2.50;;
22965;SDS011;11649;48.090;9.754;2023-07-28T09:01:41;2.72;;;2.47;;
22965;SDS011;11649;48.090;9.754;2023-07-28T09:04:10;3.20;;;2.50;;
22965;SDS011;11649;48.090;9.754;2023-07-28T09:06:37;2.60;;;2.40;;
22965;SDS011;11649;48.090;9.754;2023-07-28T09:09:07;4.78;;;2.15;;
22965;SDS011;11649;48.090;9.754;2023-07-28T09:11:43;3.95;;;2.80;;
22965;SDS011;11649;48.090;9.754;2023-07-28T09:14:14;3.53;;;2.33;;
22965;SDS011;11649;48.090;9.754;2023-07-28T09:16:43;5.07;;;2.70;;
22965;SDS011;11649;48.090;9.754;2023-07-28T09:19:10;4.50;;;2.33;;
22965;SDS011;11649;48.090;9.754;2023-07-28T09:21:37;4.25;;;2.38;;
22965;SDS011;11649;48.090;9.754;2023-07-28T09:27:04;3.65;;;2.40;;
22965;SDS011;11649;48.090;9.754;2023-07-28T09:29:31;2.72;;;2.47;;
22965;SDS011;11649;48.090;9.754;2023-07-28T09:32:04;7.53;;;2.95;;
22965;SDS011;11649;48.090;9.754;2023-07-28T09:34:33;3.05;;;2.75;;
22965;SDS011;11649;48.090;9.754;2023-07-28T09:37:00;4.88;;;2.55;;
22965;SDS011;11649;48.090;9.754;2023-07-28T09:39:27;8.02;;;2.80;;
22965;SDS011;11649;48.090;9.754;2023-07-28T09:41:57;3.28;;;2.70;;
22965;SDS011;11649;48.090;9.754;2023-07-28T09:44:26;4.00;;;2.70;;
22965;SDS011;11649;48.090;9.754;2023-07-28T09:46:53;3.83;;;2.65;;
22965;SDS011;11649;48.090;9.754;2023-07-28T09:49:27;3.30;;;2.60;;
22965;SDS011;11649;48.090;9.754;2023-07-28T09:52:00;5.57;;;2.50;;
22965;SDS011;11649;48.090;9.754;2023-07-28T09:54:35;3.88;;;2.67;;
22965;SDS011;11649;48.090;9.754;2023-07-28T09:59:47;3.08;;;2.53;;
22965;SDS011;11649;48.090;9.754;2023-07-28T10:02:14;5.22;;;2.38;;
22965;SDS011;11649;48.090;9.754;2023-07-28T10:04:41;2.97;;;2.50;;
22965;SDS011;11649;48.090;9.754;2023-07-28T10:07:08;3.58;;;2.60;;
22965;SDS011;11649;48.090;9.754;2023-07-28T10:09:36;3.22;;;2.45;;
22965;SDS011;11649;48.090;9.754;2023-07-28T10:15:05;2.95;;;2.40;;
22965;SDS011;11649;48.090;9.754;2023-07-28T10:17:33;4.13;;;2.53;;
22965;SDS011;11649;48.090;9.754;2023-07-28T10:20:04;2.97;;;2.30;;
22965;SDS011;11649;48.090;9.754;2023-07-28T10:23:01;4.22;;;2.63;;
22965;SDS011;11649;48.090;9.754;2023-07-28T10:29:38;4.43;;;2.80;;
22965;SDS011;11649;48.090;9.754;2023-07-28T10:32:05;3.92;;;2.60;;
22965;SDS011;11649;48.090;9.754;2023-07-28T10:34:32;3.58;;;2.63;;
22965;SDS011;11649;48.090;9.754;2023-07-28T10:36:59;3.85;;;2.63;;
22965;SDS011;11649;48.090;9.754;2023-07-28T10:39:26;5.25;;;2.90;;
22965;SDS011;11649;48.090;9.754;2023-07-28T10:44:30;4.15;;;2.70;;
22965;SDS011;11649;48.090;9.754;2023-07-28T10:46:58;3.10;;;2.70;;
22965;SDS011;11649;48.090;9.754;2023-07-28T10:49:25;3.33;;;2.45;;
22965;SDS011;11649;48.090;9.754;2023-07-28T10:51:52;3.28;;;2.80;;
22965;SDS011;11649;48.090;9.754;2023-07-28T10:54:19;3.33;;;2.53;;
22965;SDS011;11649;48.090;9.754;2023-07-28T10:56:47;3.85;;;2.70;;
22965;SDS011;11649;48.090;9.754;2023-07-28T10:59:14;8.30;;;2.92;;
22965;SDS011;11649;48.090;9.754;2023-07-28T11:01:42;3.65;;;2.85;;
22965;SDS011;11649;48.090;9.754;2023-07-28T11:04:10;3.25;;;2.95;;
22965;SDS011;11649;48.090;9.754;2023-07-28T11:09:26;2.95;;;2.50;;
22965;SDS011;11649;48.090;9.754;2023-07-28T11:11:56;4.22;;;2.55;;
22965;SDS011;11649;48.090;9.754;2023-07-28T11:14:23;3.95;;;2.90;;
22965;SDS011;11649;48.090;9.754;2023-07-28T11:16:50;4.05;;;2.63;;
22965;SDS011;11649;48.090;9.754;2023-07-28T11:19:17;4.60;;;2.72;;
22965;SDS011;11649;48.090;9.754;2023-07-28T11:21:51;3.05;;;2.72;;
22965;SDS011;11649;48.090;9.754;2023-07-28T11:24:19;3.38;;;2.70;;
22965;SDS011;11649;48.090;9.754;2023-07-28T11:26:47;4.00;;;2.97;;
22965;SDS011;11649;48.090;9.754;2023-07-28T11:29:15;4.22;;;2.70;;
22965;SDS011;11649;48.090;9.754;2023-07-28T11:31:42;3.63;;;2.65;;
22965;SDS011;11649;48.090;9.754;2023-07-28T11:34:16;5.20;;;2.70;;
22965;SDS011;11649;48.090;9.754;2023-07-28T11:36:43;2.95;;;2.70;;
22965;SDS011;11649;48.090;9.754;2023-07-28T11:39:10;3.17;;;2.75;;
22965;SDS011;11649;48.090;9.754;2023-07-28T11:41:40;3.25;;;2.92;;
22965;SDS011;11649;48.090;9.754;2023-07-28T11:44:08;5.63;;;2.70;;
22965;SDS011;11649;48.090;9.754;2023-07-28T11:46:39;4.63;;;2.75;;
22965;SDS011;11649;48.090;9.754;2023-07-28T11:49:13;4.45;;;2.55;;
22965;SDS011;11649;48.090;9.754;2023-07-28T11:51:46;3.78;;;2.97;;
22965;SDS011;11649;48.090;9.754;2023-07-28T11:54:16;3.65;;;2.63;;
22965;SDS011;11649;48.090;9.754;2023-07-28T11:56:46;3.13;;;2.67;;
22965;SDS011;11649;48.090;9.754;2023-07-28T11:59:16;3.72;;;2.78;;
22965;SDS011;11649;48.090;9.754;2023-07-28T12:01:55;3.10;;;2.80;;
22965;SDS011;11649;48.090;9.754;2023-07-28T12:04:29;3.25;;;2.45;;
22965;SDS011;11649;48.090;9.754;2023-07-28T12:12:25;3.78;;;2.80;;
22965;SDS011;11649;48.090;9.754;2023-07-28T12:14:53;3.75;;;2.70;;
22965;SDS011;11649;48.090;9.754;2023-07-28T12:17:23;4.10;;;2.60;;
22965;SDS011;11649;48.090;9.754;2023-07-28T12:20:13;4.47;;;2.40;;
22965;SDS011;11649;48.090;9.754;2023-07-28T12:22:41;3.30;;;2.50;;
22965;SDS011;11649;48.090;9.754;2023-07-28T12:25:09;3.35;;;2.55;;
22965;SDS011;11649;48.090;9.754;2023-07-28T12:27:37;3.63;;;2.80;;
22965;SDS011;11649;48.090;9.754;2023-07-28T12:30:04;3.08;;;2.50;;
22965;SDS011;11649;48.090;9.754;2023-07-28T12:32:42;4.28;;;2.25;;
22965;SDS011;11649;48.090;9.754;2023-07-28T12:35:28;2.97;;;2.17;;
22965;SDS011;11649;48.090;9.754;2023-07-28T12:38:06;2.97;;;2.35;;
22965;SDS011;11649;48.090;9.754;2023-07-28T12:40:37;4.33;;;2.20;;
22965;SDS011;11649;48.090;9.754;2023-07-28T12:43:07;2.50;;;2.05;;
22965;SDS011;11649;48.090;9.754;2023-07-28T12:45:34;3.92;;;2.28;;
22965;SDS011;11649;48.090;9.754;2023-07-28T12:48:03;2.65;;;2.10;;
22965;SDS011;11649;48.090;9.754;2023-07-28T12:50:30;2.67;;;2.03;;
22965;SDS011;11649;48.090;9.754;2023-07-28T12:53:07;3.75;;;2.08;;
22965;SDS011;11649;48.090;9.754;2023-07-28T12:55:42;2.35;;;2.00;;
22965;SDS011;11649;48.090;9.754;2023-07-28T12:58:11;4.22;;;2.20;;
22965;SDS011;11649;48.090;9.754;2023-07-28T13:00:41;2.83;;;2.00;;
22965;SDS011;11649;48.090;9.754;2023-07-28T13:03:11;2.70;;;2.03;;
22965;SDS011;11649;48.090;9.754;2023-07-28T13:05:38;3.92;;;2.17;;
22965;SDS011;11649;48.090;9.754;2023-07-28T13:08:04;3.33;;;2.10;;
22965;SDS011;11649;48.090;9.754;2023-07-28T13:10:34;3.30;;;2.15;;
22965;SDS011;11649;48.090;9.754;2023-07-28T13:13:05;2.35;;;2.10;;
22965;SDS011;11649;48.090;9.754;2023-07-28T13:15:38;2.05;;;1.85;;
22965;SDS011;11649;48.090;9.754;2023-07-28T13:18:05;2.80;;;1.90;;
22965;SDS011;11649;48.090;9.754;2023-07-28T13:20:32;2.25;;;1.90;;
22965;SDS011;11649;48.090;9.754;2023-07-28T13:22:59;2.92;;;1.92;;
22965;SDS011;11649;48.090;9.754;2023-07-28T13:25:25;3.42;;;1.98;;
22965;SDS011;11649;48.090;9.754;2023-07-28T13:27:52;3.47;;;1.85;;
22965;SDS011;11649;48.090;9.754;2023-07-28T13:30:19;2.28;;;2.08;;
22965;SDS011;11649;48.090;9.754;2023-07-28T13:32:46;5.65;;;2.08;;
22965;SDS011;11649;48.090;9.754;2023-07-28T13:35:18;2.60;;;2.00;;
22965;SDS011;11649;48.090;9.754;2023-07-28T13:37:44;2.33;;;2.13;;
22965;SDS011;11649;48.090;9.754;2023-07-28T13:40:11;2.30;;;2.10;;
22965;SDS011;11649;48.090;9.754;2023-07-28T13:42:39;5.07;;;2.05;;
22965;SDS011;11649;48.090;9.754;2023-07-28T13:45:06;2.78;;;2.00;;
22965;SDS011;11649;48.090;9.754;2023-07-28T13:47:34;3.58;;;2.10;;
22965;SDS011;11649;48.090;9.754;2023-07-28T13:50:01;5.93;;;2.20;;
22965;SDS011;11649;48.090;9.754;2023-07-28T13:52:28;2.80;;;2.35;;
22965;SDS011;11649;48.090;9.754;2023-07-28T13:54:56;2.60;;;2.13;;
22965;SDS011;11649;48.090;9.754;2023-07-28T13:57:25;3.45;;;2.33;;
22965;SDS011;11649;48.090;9.754;2023-07-28T13:59:52;3.65;;;2.30;;
22965;SDS011;11649;48.090;9.754;2023-07-28T14:02:24;4.45;;;2.10;;
22965;SDS011;11649;48.090;9.754;2023-07-28T14:04:51;3.85;;;2.10;;
22965;SDS011;11649;48.090;9.754;2023-07-28T14:07:18;3.53;;;2.20;;
22965;SDS011;11649;48.090;9.754;2023-07-28T14:09:45;3.95;;;2.47;;
22965;SDS011;11649;48.090;9.754;2023-07-28T14:12:12;2.83;;;2.53;;
22965;SDS011;11649;48.090;9.754;2023-07-28T14:14:38;4.20;;;2.65;;
22965;SDS011;11649;48.090;9.754;2023-07-28T14:17:05;3.83;;;2.85;;
22965;SDS011;11649;48.090;9.754;2023-07-28T14:19:32;2.95;;;2.53;;
22965;SDS011;11649;48.090;9.754;2023-07-28T14:21:59;2.78;;;2.08;;
22965;SDS011;11649;48.090;9.754;2023-07-28T14:24:25;2.45;;;2.22;;
22965;SDS011;11649;48.090;9.754;2023-07-28T14:26:52;2.83;;;2.33;;
22965;SDS011;11649;48.090;9.754;2023-07-28T14:29:22;4.13;;;2.17;;
22965;SDS011;11649;48.090;9.754;2023-07-28T14:31:49;3.75;;;2.33;;
22965;SDS011;11649;48.090;9.754;2023-07-28T14:34:16;3.03;;;2.40;;
22965;SDS011;11649;48.090;9.754;2023-07-28T14:39:51;7.78;;;2.75;;
22965;SDS011;11649;48.090;9.754;2023-07-28T14:42:18;4.72;;;2.80;;
22965;SDS011;11649;48.090;9.754;2023-07-28T14:44:44;2.70;;;2.50;;
22965;SDS011;11649;48.090;9.754;2023-07-28T14:47:11;3.17;;;2.30;;
22965;SDS011;11649;48.090;9.754;2023-07-28T14:49:38;4.05;;;2.30;;
22965;SDS011;11649;48.090;9.754;2023-07-28T14:52:04;3.83;;;2.53;;
22965;SDS011;11649;48.090;9.754;2023-07-28T14:54:32;3.38;;;2.35;;
22965;SDS011;11649;48.090;9.754;2023-07-28T14:56:59;2.55;;;2.00;;
22965;SDS011;11649;48.090;9.754;2023-07-28T14:59:25;3.50;;;2.10;;
22965;SDS011;11649;48.090;9.754;2023-07-28T15:01:52;3.72;;;2.30;;
22965;SDS011;11649;48.090;9.754;2023-07-28T15:04:19;4.30;;;2.40;;
22965;SDS011;11649;48.090;9.754;2023-07-28T15:06:46;2.40;;;2.20;;
22965;SDS011;11649;48.090;9.754;2023-07-28T15:09:12;3.70;;;2.45;;
22965;SDS011;11649;48.090;9.754;2023-07-28T15:11:39;5.55;;;2.50;;
22965;SDS011;11649;48.090;9.754;2023-07-28T15:16:38;3.88;;;2.40;;
22965;SDS011;11649;48.090;9.754;2023-07-28T15:19:05;5.28;;;2.90;;
22965;SDS011;11649;48.090;9.754;2023-07-28T15:21:32;7.75;;;3.60;;
22965;SDS011;11649;48.090;9.754;2023-07-28T15:24:00;16.67;;;5.03;;
22965;SDS011;11649;48.090;9.754;2023-07-28T15:26:27;6.05;;;3.88;;